createdAt,value
2017-09-24T00:01:33.983Z,90.80
2017-09-24T00:04:03.173Z,91.00
2017-09-24T00:06:32.307Z,91.10
2017-09-24T00:09:00.683Z,91.10
2017-09-24T00:11:29.115Z,91.20
2017-09-24T00:13:57.500Z,90.90
2017-09-24T00:16:25.876Z,90.80
2017-09-24T00:18:54.281Z,91.00
2017-09-24T00:21:23.423Z,91.70
2017-09-24T00:23:51.802Z,91.70
2017-09-24T00:26:20.935Z,91.40
2017-09-24T00:28:50.098Z,91.50
2017-09-24T00:31:18.603Z,91.50
2017-09-24T00:33:47.058Z,91.70
2017-09-24T00:36:15.442Z,91.80
2017-09-24T00:38:43.829Z,91.60
2017-09-24T00:41:12.242Z,91.60
2017-09-24T00:43:41.392Z,91.40
2017-09-24T00:46:09.773Z,91.30
2017-09-24T00:48:38.286Z,91.20
2017-09-24T00:51:07.436Z,91.10
2017-09-24T00:53:35.836Z,91.20
2017-09-24T00:56:04.506Z,91.20
2017-09-24T00:58:32.930Z,91.00
2017-09-24T01:01:02.101Z,91.10
2017-09-24T01:03:30.707Z,91.10
2017-09-24T01:05:59.855Z,90.50
2017-09-24T01:08:28.771Z,90.50
2017-09-24T01:10:57.349Z,90.60
2017-09-24T01:13:26.326Z,90.70
2017-09-24T01:15:54.753Z,90.60
2017-09-24T01:18:24.104Z,90.60
2017-09-24T01:20:52.592Z,90.60
2017-09-24T01:23:21.067Z,90.50
2017-09-24T01:25:49.650Z,90.40
2017-09-24T01:28:18.183Z,90.30
2017-09-24T01:30:47.462Z,90.60
2017-09-24T01:33:15.973Z,90.60
2017-09-24T01:35:44.443Z,90.40
2017-09-24T01:38:13.748Z,90.40
2017-09-24T01:40:42.456Z,90.40
2017-09-24T01:43:10.868Z,90.40
2017-09-24T01:45:39.370Z,90.70
2017-09-24T01:48:07.849Z,90.80
2017-09-24T01:50:37.448Z,90.90
2017-09-24T01:53:06.686Z,90.70
2017-09-24T01:55:36.161Z,90.90
2017-09-24T01:58:05.698Z,90.70
2017-09-24T02:00:34.966Z,90.50
2017-09-24T02:03:05.024Z,90.80
2017-09-24T02:05:35.159Z,90.80
2017-09-24T02:08:04.385Z,91.00
2017-09-24T02:10:33.758Z,91.10
2017-09-24T02:13:02.714Z,90.80
2017-09-24T02:15:31.835Z,90.70
2017-09-24T02:18:01.322Z,90.70
2017-09-24T02:20:30.775Z,91.10
2017-09-24T02:22:59.817Z,90.80
2017-09-24T02:25:29.456Z,90.90
2017-09-24T02:27:59.329Z,90.70
2017-09-24T02:30:30.170Z,90.60
2017-09-24T02:33:00.159Z,90.50
2017-09-24T02:35:28.826Z,90.80
2017-09-24T02:37:57.259Z,90.90
2017-09-24T02:40:25.738Z,91.00
2017-09-24T02:42:54.378Z,91.00
2017-09-24T02:45:22.812Z,91.20
2017-09-24T02:47:51.546Z,91.30
2017-09-24T02:50:20.181Z,91.00
2017-09-24T02:52:48.773Z,90.70
2017-09-24T02:55:17.305Z,91.60
2017-09-24T02:57:46.898Z,92.10
2017-09-24T03:00:16.154Z,91.80
2017-09-24T03:02:45.655Z,91.80
2017-09-24T03:05:16.091Z,91.30
2017-09-24T03:07:46.795Z,91.20
2017-09-24T03:10:16.596Z,91.00
2017-09-24T03:12:47.411Z,90.90
2017-09-24T03:15:19.411Z,91.00
2017-09-24T03:17:48.662Z,90.90
2017-09-24T03:20:17.381Z,90.90
2017-09-24T03:22:46.957Z,90.60
2017-09-24T03:25:15.643Z,90.60
2017-09-24T03:27:44.225Z,90.40
2017-09-24T03:30:12.823Z,90.10
2017-09-24T03:32:41.258Z,90.30
2017-09-24T03:35:09.872Z,90.40
2017-09-24T03:37:38.661Z,90.60
2017-09-24T03:40:07.290Z,90.20
2017-09-24T03:42:36.718Z,90.50
2017-09-24T03:45:05.210Z,90.60
2017-09-24T03:47:34.613Z,90.90
2017-09-24T03:50:03.108Z,90.90
2017-09-24T03:52:31.608Z,90.90
2017-09-24T03:55:00.280Z,90.90
2017-09-24T03:57:28.752Z,91.00
2017-09-24T03:59:57.234Z,90.70
2017-09-24T04:02:25.816Z,90.80
2017-09-24T04:04:54.254Z,90.90
2017-09-24T04:07:22.734Z,90.80
2017-09-24T04:09:51.788Z,91.30
2017-09-24T04:12:20.463Z,91.10
2017-09-24T04:14:49.081Z,91.50
2017-09-24T04:17:18.301Z,91.20
2017-09-24T04:19:46.752Z,91.10
2017-09-24T04:22:15.238Z,91.70
2017-09-24T04:24:44.434Z,91.50
2017-09-24T04:27:13.637Z,91.70
2017-09-24T04:29:43.383Z,92.80
2017-09-24T04:32:11.811Z,92.80
2017-09-24T04:34:40.250Z,92.70
2017-09-24T04:37:08.732Z,92.60
2017-09-24T04:39:37.190Z,92.50
2017-09-24T04:42:05.638Z,92.20
2017-09-24T04:44:34.121Z,92.20
2017-09-24T04:47:03.596Z,92.30
2017-09-24T04:49:31.993Z,92.20
2017-09-24T04:52:01.187Z,91.90
2017-09-24T04:54:31.079Z,91.70
2017-09-24T04:56:59.474Z,91.60
2017-09-24T04:59:27.905Z,91.50
2017-09-24T05:01:56.288Z,91.60
2017-09-24T05:04:24.706Z,91.30
2017-09-24T05:06:53.116Z,91.30
2017-09-24T05:09:22.306Z,91.20
2017-09-24T05:11:50.730Z,91.20
2017-09-24T05:14:19.544Z,91.40
2017-09-24T05:16:48.133Z,91.60
2017-09-24T05:19:16.773Z,91.40
2017-09-24T05:21:45.500Z,91.70
2017-09-24T05:24:14.131Z,91.80
2017-09-24T05:26:43.591Z,91.70
2017-09-24T05:29:12.214Z,91.60
2017-09-24T05:31:41.414Z,91.10
2017-09-24T05:34:10.663Z,90.90
2017-09-24T05:36:39.144Z,90.90
2017-09-24T05:39:07.783Z,90.50
2017-09-24T05:41:37.308Z,90.40
2017-09-24T05:44:05.933Z,90.40
2017-09-24T05:46:34.399Z,90.10
2017-09-24T05:49:03.027Z,90.00
2017-09-24T05:51:33.963Z,87.20
2017-09-24T05:54:03.638Z,85.30
2017-09-24T05:56:32.631Z,85.30
2017-09-24T05:59:01.415Z,83.70
2017-09-24T06:01:30.714Z,80.80
2017-09-24T06:03:59.304Z,80.60
2017-09-24T06:06:27.836Z,79.60
2017-09-24T06:08:56.370Z,77.90
2017-09-24T06:11:24.959Z,76.70
2017-09-24T06:13:53.441Z,75.20
2017-09-24T06:16:21.996Z,74.10
2017-09-24T06:18:50.605Z,73.30
2017-09-24T06:21:19.548Z,72.60
2017-09-24T06:23:48.206Z,72.50
2017-09-24T06:26:16.661Z,71.20
2017-09-24T06:28:45.156Z,69.20
2017-09-24T06:31:13.627Z,67.90
2017-09-24T06:33:42.821Z,65.30
2017-09-24T06:36:11.498Z,65.40
2017-09-24T06:38:40.627Z,64.50
2017-09-24T06:41:09.925Z,63.10
2017-09-24T06:43:39.189Z,62.10
2017-09-24T06:46:07.627Z,62.10
2017-09-24T06:48:36.915Z,60.30
2017-09-24T06:51:05.515Z,59.10
2017-09-24T06:53:34.070Z,58.40
2017-09-24T06:56:03.537Z,56.80
2017-09-24T06:58:32.223Z,56.80
2017-09-24T07:01:01.017Z,56.20
2017-09-24T07:03:29.584Z,55.20
2017-09-24T07:05:58.172Z,54.20
2017-09-24T07:08:27.164Z,54.40
2017-09-24T07:10:55.957Z,53.60
2017-09-24T07:13:24.683Z,52.40
2017-09-24T07:15:54.251Z,52.00
2017-09-24T07:18:22.696Z,52.00
2017-09-24T07:20:51.171Z,52.00
2017-09-24T07:23:19.606Z,51.90
2017-09-24T07:25:48.275Z,50.60
2017-09-24T07:28:16.960Z,49.60
2017-09-24T07:30:45.433Z,49.30
2017-09-24T07:33:13.859Z,49.40
2017-09-24T07:35:43.211Z,48.10
2017-09-24T07:38:11.639Z,48.00
2017-09-24T07:40:41.054Z,47.70
2017-09-24T07:43:09.548Z,47.70
2017-09-24T07:45:37.984Z,48.80
2017-09-24T07:48:06.600Z,47.10
2017-09-24T07:50:35.081Z,46.70
2017-09-24T07:53:03.712Z,46.10
2017-09-24T07:55:32.398Z,45.30
2017-09-24T07:58:01.078Z,45.00
2017-09-24T08:00:29.717Z,44.90
2017-09-24T08:02:58.418Z,46.10
2017-09-24T08:05:27.292Z,45.30
2017-09-24T08:07:55.867Z,44.80
2017-09-24T08:10:26.710Z,44.00
2017-09-24T08:12:55.310Z,44.00
2017-09-24T08:15:23.866Z,43.50
2017-09-24T08:17:53.294Z,43.00
2017-09-24T08:20:24.139Z,42.90
2017-09-24T08:22:57.100Z,42.30
2017-09-24T08:25:25.591Z,42.80
2017-09-24T08:27:58.695Z,42.10
2017-09-24T08:30:33.532Z,42.20
2017-09-24T08:33:05.803Z,42.20
2017-09-24T08:35:35.433Z,42.00
2017-09-24T08:38:04.815Z,40.80
2017-09-24T08:40:34.303Z,41.70
2017-09-24T08:43:05.835Z,41.70
2017-09-24T08:45:36.507Z,42.70
2017-09-24T08:48:06.134Z,42.70
2017-09-24T08:50:35.887Z,42.20
2017-09-24T08:53:07.013Z,42.10
2017-09-24T08:55:37.584Z,42.10
2017-09-24T08:58:10.402Z,42.10
2017-09-24T09:00:44.540Z,41.70
2017-09-24T09:03:17.173Z,41.70
2017-09-24T09:05:51.123Z,41.70
2017-09-24T09:08:20.697Z,40.80
2017-09-24T09:10:49.525Z,40.80
2017-09-24T09:13:18.916Z,40.40
2017-09-24T09:15:48.386Z,39.50
2017-09-24T09:18:17.491Z,39.40
2017-09-24T09:20:46.131Z,38.40
2017-09-24T09:23:14.714Z,37.70
2017-09-24T09:25:43.332Z,38.50
2017-09-24T09:28:11.766Z,38.10
2017-09-24T09:30:40.980Z,37.70
2017-09-24T09:33:22.560Z,37.70
2017-09-24T09:35:51.069Z,37.10
2017-09-24T09:38:19.514Z,36.70
2017-09-24T09:40:48.357Z,37.30
2017-09-24T09:43:35.055Z,37.40
2017-09-24T09:46:03.610Z,36.50
2017-09-24T09:48:32.048Z,36.70
2017-09-24T09:51:01.353Z,37.50
2017-09-24T09:53:30.215Z,37.40
2017-09-24T09:55:58.791Z,36.70
2017-09-24T09:58:27.382Z,36.10
2017-09-24T10:00:55.865Z,35.30
2017-09-24T10:03:24.495Z,35.70
2017-09-24T10:05:53.131Z,36.10
2017-09-24T10:08:41.222Z,36.40
2017-09-24T10:11:09.888Z,36.00
2017-09-24T10:13:39.731Z,36.50
2017-09-24T10:16:08.449Z,36.40
2017-09-24T10:18:37.141Z,37.20
2017-09-24T10:21:05.827Z,36.10
2017-09-24T10:23:34.462Z,35.80
2017-09-24T10:26:02.954Z,34.40
2017-09-24T10:28:49.197Z,35.20
2017-09-24T10:31:37.035Z,36.50
2017-09-24T10:34:08.897Z,37.30
2017-09-24T10:36:40.225Z,37.30
2017-09-24T10:39:08.667Z,35.40
2017-09-24T10:41:37.820Z,35.40
2017-09-24T10:44:06.663Z,35.70
2017-09-24T10:46:35.170Z,36.90
2017-09-24T10:49:03.651Z,38.40
2017-09-24T10:51:32.292Z,39.30
2017-09-24T10:54:00.914Z,41.80
2017-09-24T10:56:29.395Z,44.40
2017-09-24T10:58:58.042Z,44.80
2017-09-24T11:01:26.943Z,45.40
2017-09-24T11:03:55.566Z,44.70
2017-09-24T11:06:24.006Z,41.60
2017-09-24T11:08:52.466Z,40.90
2017-09-24T11:11:21.788Z,38.60
2017-09-24T11:13:50.511Z,38.60
2017-09-24T11:16:18.955Z,37.30
2017-09-24T11:18:47.435Z,36.40
2017-09-24T11:21:17.051Z,35.80
2017-09-24T11:23:45.561Z,35.50
2017-09-24T11:26:14.205Z,35.30
2017-09-24T11:28:42.796Z,34.40
2017-09-24T11:31:14.588Z,33.90
2017-09-24T11:33:43.890Z,35.80
2017-09-24T11:36:12.580Z,36.90
2017-09-24T11:38:42.287Z,36.90
2017-09-24T11:41:12.483Z,36.10
2017-09-24T11:43:41.890Z,36.00
2017-09-24T11:46:10.460Z,35.30
2017-09-24T11:48:38.906Z,36.80
2017-09-24T11:51:08.837Z,38.20
2017-09-24T11:53:37.442Z,38.10
2017-09-24T11:56:05.996Z,37.60
2017-09-24T11:58:35.358Z,39.10
2017-09-24T12:01:03.799Z,39.10
2017-09-24T12:03:32.327Z,37.70
2017-09-24T12:06:01.188Z,35.90
2017-09-24T12:08:30.001Z,35.00
2017-09-24T12:10:59.461Z,36.40
2017-09-24T12:13:28.287Z,36.40
2017-09-24T12:15:57.227Z,35.90
2017-09-24T12:18:26.058Z,35.70
2017-09-24T12:20:54.956Z,37.70
2017-09-24T12:23:23.600Z,35.40
2017-09-24T12:25:52.194Z,35.40
2017-09-24T12:28:21.328Z,34.30
2017-09-24T12:30:50.551Z,35.00
2017-09-24T12:33:19.912Z,34.90
2017-09-24T12:35:49.075Z,34.90
2017-09-24T12:38:18.186Z,35.90
2017-09-24T12:40:46.685Z,36.00
2017-09-24T12:43:15.434Z,34.80
2017-09-24T12:45:44.066Z,35.80
2017-09-24T12:48:12.511Z,36.60
2017-09-24T12:50:41.117Z,36.90
2017-09-24T12:53:09.601Z,38.00
2017-09-24T12:55:39.572Z,37.30
2017-09-24T12:58:08.069Z,37.70
2017-09-24T13:00:36.578Z,37.10
2017-09-24T13:03:05.056Z,36.80
2017-09-24T13:05:33.793Z,37.50
2017-09-24T13:08:02.990Z,37.70
2017-09-24T13:10:32.211Z,38.50
2017-09-24T13:13:01.853Z,38.50
2017-09-24T13:15:30.313Z,39.50
2017-09-24T13:17:58.917Z,39.40
2017-09-24T13:20:27.413Z,38.40
2017-09-24T13:22:59.977Z,38.90
2017-09-24T13:25:29.827Z,40.20
2017-09-24T13:27:59.240Z,41.70
2017-09-24T13:30:27.952Z,41.60
2017-09-24T13:32:57.039Z,44.30
2017-09-24T13:35:26.041Z,45.10
2017-09-24T13:37:55.052Z,46.60
2017-09-24T13:40:23.845Z,46.40
2017-09-24T13:42:52.370Z,47.00
2017-09-24T13:45:20.859Z,46.70
2017-09-24T13:47:50.465Z,46.70
2017-09-24T13:50:19.383Z,46.90
2017-09-24T13:52:48.827Z,47.00
2017-09-24T13:55:17.812Z,46.50
2017-09-24T13:57:46.286Z,47.20
2017-09-24T14:00:14.718Z,46.50
2017-09-24T14:02:43.391Z,45.70
2017-09-24T14:05:12.651Z,46.90
2017-09-24T14:07:41.133Z,46.90
2017-09-24T14:10:09.849Z,48.10
2017-09-24T14:12:38.343Z,46.50
2017-09-24T14:15:06.786Z,47.40
2017-09-24T14:17:37.020Z,48.80
2017-09-24T14:20:05.529Z,48.80
2017-09-24T14:22:34.022Z,49.50
2017-09-24T14:25:02.797Z,50.10
2017-09-24T14:27:31.344Z,50.80
2017-09-24T14:29:59.850Z,51.50
2017-09-24T14:32:28.461Z,51.50
2017-09-24T14:34:56.924Z,51.90
2017-09-24T14:37:25.369Z,50.30
2017-09-24T14:39:53.840Z,51.00
2017-09-24T14:42:23.101Z,52.70
2017-09-24T14:44:51.600Z,52.50
2017-09-24T14:47:20.137Z,53.80
2017-09-24T14:49:48.898Z,54.10
2017-09-24T14:52:17.397Z,54.20
2017-09-24T14:54:46.913Z,53.50
2017-09-24T14:57:15.363Z,53.40
2017-09-24T14:59:43.849Z,53.70
2017-09-24T15:02:12.376Z,53.90
2017-09-24T15:04:40.862Z,53.30
2017-09-24T15:07:09.415Z,53.30
2017-09-24T15:09:38.037Z,53.30
2017-09-24T15:12:06.566Z,53.90
2017-09-24T15:14:35.867Z,53.70
2017-09-24T15:17:06.031Z,54.10
2017-09-24T15:19:34.714Z,54.00
2017-09-24T15:22:03.296Z,54.30
2017-09-24T15:24:32.783Z,54.90
2017-09-24T15:27:02.159Z,55.80
2017-09-24T15:29:31.378Z,56.20
2017-09-24T15:31:59.934Z,56.00
2017-09-24T15:34:28.474Z,56.60
2017-09-24T15:36:56.919Z,56.50
2017-09-24T15:39:25.487Z,57.20
2017-09-24T15:41:57.725Z,57.40
2017-09-24T15:44:27.453Z,56.80
2017-09-24T15:46:55.942Z,56.70
2017-09-24T15:49:25.182Z,58.10
2017-09-24T15:51:53.727Z,57.50
2017-09-24T15:54:23.030Z,57.20
2017-09-24T15:56:52.310Z,57.80
2017-09-24T15:59:20.852Z,57.70
2017-09-24T16:01:49.343Z,58.30
2017-09-24T16:04:17.876Z,58.60
2017-09-24T16:06:46.459Z,59.10
2017-09-24T16:09:15.691Z,60.00
2017-09-24T16:11:44.138Z,59.90
2017-09-24T16:14:13.552Z,60.50
2017-09-24T16:16:42.123Z,60.50
2017-09-24T16:19:10.915Z,61.30
2017-09-24T16:21:39.475Z,61.90
2017-09-24T16:24:07.981Z,62.90
2017-09-24T16:26:36.464Z,62.60
2017-09-24T16:29:05.092Z,64.60
2017-09-24T16:31:33.984Z,63.90
2017-09-24T16:34:03.534Z,65.80
2017-09-24T16:36:32.198Z,65.80
2017-09-24T16:39:00.825Z,64.60
2017-09-24T16:41:29.441Z,66.40
2017-09-24T16:43:58.048Z,66.70
2017-09-24T16:46:26.779Z,67.80
2017-09-24T16:48:55.255Z,68.10
2017-09-24T16:51:24.711Z,67.40
2017-09-24T16:53:53.262Z,67.50
2017-09-24T16:56:22.578Z,67.40
2017-09-24T16:58:51.124Z,67.50
2017-09-24T17:01:20.345Z,67.50
2017-09-24T17:03:48.888Z,67.40
2017-09-24T17:06:18.283Z,69.10
2017-09-24T17:08:46.798Z,69.10
2017-09-24T17:11:15.601Z,69.30
2017-09-24T17:13:44.151Z,69.80
2017-09-24T17:16:13.355Z,70.20
2017-09-24T17:18:42.664Z,71.60
2017-09-24T17:21:11.202Z,71.50
2017-09-24T17:23:39.636Z,72.10
2017-09-24T17:26:08.210Z,72.30
2017-09-24T17:28:37.251Z,71.80
2017-09-24T17:31:05.699Z,71.80
2017-09-24T17:33:34.171Z,70.40
2017-09-24T17:36:02.693Z,71.00
2017-09-24T17:38:31.132Z,71.80
2017-09-24T17:40:59.587Z,71.70
2017-09-24T17:49:21.761Z,71.10
2017-09-24T17:51:50.979Z,72.60
2017-09-24T17:54:19.496Z,72.50
2017-09-24T17:56:48.472Z,72.30
2017-09-24T17:59:16.919Z,71.50
2017-09-24T18:01:46.945Z,72.30
2017-09-24T18:04:15.641Z,72.30
2017-09-24T18:06:44.263Z,73.40
2017-09-24T18:09:12.816Z,73.60
2017-09-24T18:11:41.306Z,72.10
2017-09-24T18:14:09.958Z,73.00
2017-09-24T18:16:39.178Z,73.70
2017-09-24T18:19:07.765Z,73.80
2017-09-24T18:21:36.214Z,74.00
2017-09-24T18:24:05.779Z,75.10
2017-09-24T18:26:35.338Z,74.10
2017-09-24T18:29:03.905Z,74.30
2017-09-24T18:31:33.371Z,74.50
2017-09-24T18:34:02.014Z,74.40
2017-09-24T18:36:30.634Z,74.20
2017-09-24T18:38:59.866Z,73.60
2017-09-24T18:41:28.370Z,74.90
2017-09-24T18:43:56.893Z,74.80
2017-09-24T18:46:25.443Z,76.00
2017-09-24T18:48:54.220Z,76.20
2017-09-24T18:51:23.153Z,76.80
2017-09-24T18:53:52.447Z,77.30
2017-09-24T18:56:21.027Z,78.00
2017-09-24T18:58:49.482Z,78.30
2017-09-24T19:01:18.109Z,78.60
2017-09-24T19:03:46.597Z,79.00
2017-09-24T19:06:15.177Z,78.30
2017-09-24T19:08:43.863Z,78.50
2017-09-24T19:11:12.447Z,78.50
2017-09-24T19:13:40.915Z,79.00
2017-09-24T19:16:09.364Z,78.30
2017-09-24T19:18:37.931Z,79.10
2017-09-24T19:21:07.253Z,79.30
2017-09-24T19:23:35.749Z,79.10
2017-09-24T19:26:04.367Z,79.60
2017-09-24T19:28:32.830Z,80.40
2017-09-24T19:31:01.410Z,81.20
2017-09-24T19:33:30.407Z,81.80
2017-09-24T19:35:58.846Z,82.30
2017-09-24T19:38:27.463Z,83.50
2017-09-24T19:40:55.966Z,84.50
2017-09-24T19:43:25.140Z,85.10
2017-09-24T19:45:53.695Z,85.70
2017-09-24T19:48:22.422Z,85.30
2017-09-24T19:50:51.224Z,85.50
2017-09-24T19:53:20.668Z,86.60
2017-09-24T19:55:49.399Z,86.60
2017-09-24T19:58:18.285Z,86.40
2017-09-24T20:00:47.099Z,85.50
2017-09-24T20:03:15.977Z,85.50
2017-09-24T20:05:44.651Z,85.80
2017-09-24T20:08:13.222Z,85.50
2017-09-24T20:10:41.918Z,84.80
2017-09-24T20:13:10.617Z,84.80
2017-09-24T20:15:39.297Z,85.60
2017-09-24T20:18:08.618Z,85.20
2017-09-24T20:20:38.309Z,85.40
2017-09-24T20:23:06.894Z,85.40
2017-09-24T20:25:35.394Z,85.50
2017-09-24T20:28:03.917Z,86.10
2017-09-24T20:30:32.571Z,86.50
2017-09-24T20:33:01.986Z,87.10
2017-09-24T20:35:30.490Z,87.10
2017-09-24T20:37:59.329Z,85.80
2017-09-24T20:40:27.862Z,87.60
2017-09-24T20:42:56.579Z,89.60
2017-09-24T20:45:25.684Z,90.50
2017-09-24T20:47:54.259Z,90.40
2017-09-24T20:50:22.837Z,90.30
2017-09-24T20:52:51.525Z,89.70
2017-09-24T20:55:20.327Z,89.20
2017-09-24T20:57:49.014Z,88.90
2017-09-24T21:00:17.670Z,89.00
2017-09-24T21:02:46.201Z,89.20
2017-09-24T21:05:15.462Z,89.50
2017-09-24T21:07:45.431Z,89.40
2017-09-24T21:10:14.073Z,89.80
2017-09-24T21:12:42.685Z,89.50
2017-09-24T21:15:11.113Z,89.50
2017-09-24T21:17:39.869Z,89.40
2017-09-24T21:20:08.442Z,89.50
2017-09-24T21:22:36.967Z,89.30
2017-09-24T21:25:05.535Z,89.20
2017-09-24T21:27:34.196Z,89.40
2017-09-24T21:30:02.625Z,88.60
2017-09-24T21:32:31.370Z,88.50
2017-09-24T21:34:59.862Z,88.30
2017-09-24T21:37:28.360Z,88.50
2017-09-24T21:39:57.041Z,88.00
2017-09-24T21:42:25.834Z,87.60
2017-09-24T21:44:58.626Z,88.80
2017-09-24T21:47:27.303Z,88.70
2017-09-24T21:49:56.397Z,88.50
2017-09-24T21:52:24.976Z,88.20
2017-09-24T21:54:53.867Z,88.70
2017-09-24T21:57:22.972Z,88.90
2017-09-24T21:59:52.918Z,89.20
2017-09-24T22:02:22.124Z,89.60
2017-09-24T22:04:51.804Z,89.40
2017-09-24T22:07:21.239Z,89.40
2017-09-24T22:09:50.470Z,89.60
2017-09-24T22:12:18.902Z,89.70
2017-09-24T22:14:48.314Z,88.80
2017-09-24T22:17:17.750Z,88.70
2017-09-24T22:19:46.321Z,88.70
2017-09-24T22:22:15.249Z,89.10
2017-09-24T22:24:43.980Z,89.70
2017-09-24T22:27:13.180Z,90.00
2017-09-24T22:29:42.644Z,90.10
2017-09-24T22:32:11.332Z,90.10
2017-09-24T22:34:39.755Z,90.10
2017-09-24T22:37:08.503Z,89.80
2017-09-24T22:39:36.993Z,90.10
2017-09-24T22:42:05.563Z,90.00
2017-09-24T22:44:35.087Z,90.40
2017-09-24T22:47:04.157Z,89.70
2017-09-24T22:49:34.548Z,89.90
2017-09-24T22:52:04.945Z,90.00
2017-09-24T22:54:36.335Z,89.10
2017-09-24T22:57:06.276Z,88.70
2017-09-24T22:59:37.357Z,88.50
2017-09-24T23:02:10.285Z,88.50
2017-09-24T23:04:39.027Z,88.80
2017-09-24T23:07:07.616Z,89.10
2017-09-24T23:09:36.266Z,89.30
2017-09-24T23:12:04.691Z,89.40
2017-09-24T23:14:33.213Z,89.20
2017-09-24T23:17:02.458Z,88.90
2017-09-24T23:19:31.199Z,89.80
2017-09-24T23:21:59.823Z,90.00
2017-09-24T23:24:28.570Z,90.00
2017-09-24T23:26:57.002Z,89.70
2017-09-24T23:29:25.438Z,90.30
2017-09-24T23:31:54.401Z,90.40
2017-09-24T23:34:22.902Z,90.60
2017-09-24T23:36:52.122Z,90.30
2017-09-24T23:39:20.682Z,90.10
2017-09-24T23:41:49.266Z,89.90
2017-09-24T23:44:18.054Z,89.80
2017-09-24T23:46:46.578Z,89.90
2017-09-24T23:49:15.766Z,90.10
2017-09-24T23:51:45.121Z,90.10
2017-09-24T23:54:13.619Z,90.10
2017-09-24T23:56:42.054Z,90.20
2017-09-24T23:59:10.460Z,90.20
